sensor_id;sensor_type;location;lat;lon;timestamp;temperature;humidity
28532;DHT22;15738;44.860;10.066;2022-09-27T00:01:06;17.30;99.90
28532;DHT22;15738;44.860;10.066;2022-09-27T00:03:53;17.40;99.90
28532;DHT22;15738;44.860;10.066;2022-09-27T00:06:43;17.40;99.90
28532;DHT22;15738;44.860;10.066;2022-09-27T00:09:29;17.40;99.90
28532;DHT22;15738;44.860;10.066;2022-09-27T00:12:14;17.40;99.90
28532;DHT22;15738;44.860;10.066;2022-09-27T00:15:00;17.50;99.90
28532;DHT22;15738;44.860;10.066;2022-09-27T00:17:47;17.50;99.90
28532;DHT22;15738;44.860;10.066;2022-09-27T00:20:36;17.50;99.90
28532;DHT22;15738;44.860;10.066;2022-09-27T00:23:22;17.50;99.90
28532;DHT22;15738;44.860;10.066;2022-09-27T00:26:10;17.50;99.90
28532;DHT22;15738;44.860;10.066;2022-09-27T00:28:56;17.50;99.90
28532;DHT22;15738;44.860;10.066;2022-09-27T00:31:43;17.50;99.90
28532;DHT22;15738;44.860;10.066;2022-09-27T00:34:29;17.40;99.90
28532;DHT22;15738;44.860;10.066;2022-09-27T00:37:14;17.50;99.90
28532;DHT22;15738;44.860;10.066;2022-09-27T00:40:00;17.30;99.90
28532;DHT22;15738;44.860;10.066;2022-09-27T00:42:46;17.30;99.90
28532;DHT22;15738;44.860;10.066;2022-09-27T00:45:32;17.30;99.90
28532;DHT22;15738;44.860;10.066;2022-09-27T00:48:22;17.20;99.90
28532;DHT22;15738;44.860;10.066;2022-09-27T00:51:09;17.20;99.90
28532;DHT22;15738;44.860;10.066;2022-09-27T00:53:56;17.20;99.90
28532;DHT22;15738;44.860;10.066;2022-09-27T00:56:43;17.20;99.90
28532;DHT22;15738;44.860;10.066;2022-09-27T00:59:49;17.10;99.90
28532;DHT22;15738;44.860;10.066;2022-09-27T01:02:40;17.10;99.90
28532;DHT22;15738;44.860;10.066;2022-09-27T01:05:27;17.10;99.90
28532;DHT22;15738;44.860;10.066;2022-09-27T01:08:14;17.00;99.90
28532;DHT22;15738;44.860;10.066;2022-09-27T01:32:17;16.90;99.90
28532;DHT22;15738;44.860;10.066;2022-09-27T01:35:16;16.90;99.90
28532;DHT22;15738;44.860;10.066;2022-09-27T01:38:27;16.90;99.90
28532;DHT22;15738;44.860;10.066;2022-09-27T01:41:26;16.80;99.90
28532;DHT22;15738;44.860;10.066;2022-09-27T01:45:00;16.80;99.90
28532;DHT22;15738;44.860;10.066;2022-09-27T01:48:00;16.80;99.90
28532;DHT22;15738;44.860;10.066;2022-09-27T01:51:13;16.70;99.90
28532;DHT22;15738;44.860;10.066;2022-09-27T01:54:02;16.70;99.90
28532;DHT22;15738;44.860;10.066;2022-09-27T01:57:19;16.60;99.90
28532;DHT22;15738;44.860;10.066;2022-09-27T02:00:08;16.60;99.90
28532;DHT22;15738;44.860;10.066;2022-09-27T02:03:06;16.60;99.90
28532;DHT22;15738;44.860;10.066;2022-09-27T02:06:27;16.50;99.90
28532;DHT22;15738;44.860;10.066;2022-09-27T02:09:37;16.50;99.90
28532;DHT22;15738;44.860;10.066;2022-09-27T02:12:34;16.50;99.90
28532;DHT22;15738;44.860;10.066;2022-09-27T02:15:35;16.50;99.90
28532;DHT22;15738;44.860;10.066;2022-09-27T02:18:53;16.50;99.90
28532;DHT22;15738;44.860;10.066;2022-09-27T02:31:11;16.50;99.90
28532;DHT22;15738;44.860;10.066;2022-09-27T02:34:03;16.50;99.90
28532;DHT22;15738;44.860;10.066;2022-09-27T02:36:51;16.40;99.90
28532;DHT22;15738;44.860;10.066;2022-09-27T02:39:38;16.40;99.90
28532;DHT22;15738;44.860;10.066;2022-09-27T02:42:27;16.40;99.90
28532;DHT22;15738;44.860;10.066;2022-09-27T02:45:15;16.40;99.90
28532;DHT22;15738;44.860;10.066;2022-09-27T02:50:58;16.30;99.90
28532;DHT22;15738;44.860;10.066;2022-09-27T02:54:24;16.20;99.90
28532;DHT22;15738;44.860;10.066;2022-09-27T03:04:46;16.00;99.90
28532;DHT22;15738;44.860;10.066;2022-09-27T03:07:35;16.00;99.90
28532;DHT22;15738;44.860;10.066;2022-09-27T03:10:26;16.00;99.90
28532;DHT22;15738;44.860;10.066;2022-09-27T03:13:12;16.00;99.90
28532;DHT22;15738;44.860;10.066;2022-09-27T03:15:59;16.00;99.90
28532;DHT22;15738;44.860;10.066;2022-09-27T03:19:25;16.10;99.90
28532;DHT22;15738;44.860;10.066;2022-09-27T03:22:29;16.00;99.90
28532;DHT22;15738;44.860;10.066;2022-09-27T03:25:15;16.00;99.90
28532;DHT22;15738;44.860;10.066;2022-09-27T03:28:01;16.00;99.90
28532;DHT22;15738;44.860;10.066;2022-09-27T03:30:47;16.00;99.90
28532;DHT22;15738;44.860;10.066;2022-09-27T03:34:08;15.90;99.90
28532;DHT22;15738;44.860;10.066;2022-09-27T03:36:54;15.90;99.90
28532;DHT22;15738;44.860;10.066;2022-09-27T03:39:40;15.80;99.90
28532;DHT22;15738;44.860;10.066;2022-09-27T03:42:26;15.80;99.90
28532;DHT22;15738;44.860;10.066;2022-09-27T03:45:11;15.80;99.90
28532;DHT22;15738;44.860;10.066;2022-09-27T03:47:58;15.80;99.90
28532;DHT22;15738;44.860;10.066;2022-09-27T03:50:44;15.80;99.90
28532;DHT22;15738;44.860;10.066;2022-09-27T03:53:30;15.60;99.90
28532;DHT22;15738;44.860;10.066;2022-09-27T03:56:16;15.60;99.90
28532;DHT22;15738;44.860;10.066;2022-09-27T03:59:02;15.50;99.90
28532;DHT22;15738;44.860;10.066;2022-09-27T04:01:58;15.40;99.90
28532;DHT22;15738;44.860;10.066;2022-09-27T04:05:05;15.40;99.90
28532;DHT22;15738;44.860;10.066;2022-09-27T04:07:51;15.30;99.90
28532;DHT22;15738;44.860;10.066;2022-09-27T04:10:37;15.30;99.90
28532;DHT22;15738;44.860;10.066;2022-09-27T04:13:23;15.30;99.90
28532;DHT22;15738;44.860;10.066;2022-09-27T04:16:12;15.20;99.90
28532;DHT22;15738;44.860;10.066;2022-09-27T04:19:09;15.20;99.90
28532;DHT22;15738;44.860;10.066;2022-09-27T04:21:55;15.10;99.90
28532;DHT22;15738;44.860;10.066;2022-09-27T04:24:41;15.10;99.90
28532;DHT22;15738;44.860;10.066;2022-09-27T04:27:45;15.10;99.90
28532;DHT22;15738;44.860;10.066;2022-09-27T04:30:31;15.10;99.90
28532;DHT22;15738;44.860;10.066;2022-09-27T04:33:29;15.00;99.90
28532;DHT22;15738;44.860;10.066;2022-09-27T04:36:35;14.90;99.90
28532;DHT22;15738;44.860;10.066;2022-09-27T04:39:31;14.90;99.90
28532;DHT22;15738;44.860;10.066;2022-09-27T04:42:16;15.00;99.90
28532;DHT22;15738;44.860;10.066;2022-09-27T04:45:03;15.00;99.90
28532;DHT22;15738;44.860;10.066;2022-09-27T04:47:51;15.00;99.90
28532;DHT22;15738;44.860;10.066;2022-09-27T04:50:37;15.00;99.90
28532;DHT22;15738;44.860;10.066;2022-09-27T04:53:25;15.10;99.90
28532;DHT22;15738;44.860;10.066;2022-09-27T04:56:11;15.10;99.90
28532;DHT22;15738;44.860;10.066;2022-09-27T04:58:57;15.10;99.90
28532;DHT22;15738;44.860;10.066;2022-09-27T05:01:43;15.10;99.90
28532;DHT22;15738;44.860;10.066;2022-09-27T05:04:46;15.10;99.90
28532;DHT22;15738;44.860;10.066;2022-09-27T05:07:33;15.10;99.90
28532;DHT22;15738;44.860;10.066;2022-09-27T05:10:25;15.10;99.90
28532;DHT22;15738;44.860;10.066;2022-09-27T05:13:11;15.00;99.90
28532;DHT22;15738;44.860;10.066;2022-09-27T05:16:02;15.00;99.90
28532;DHT22;15738;44.860;10.066;2022-09-27T05:19:17;14.90;99.90
28532;DHT22;15738;44.860;10.066;2022-09-27T05:22:26;14.90;99.90
28532;DHT22;15738;44.860;10.066;2022-09-27T05:25:11;14.90;99.90
28532;DHT22;15738;44.860;10.066;2022-09-27T05:27:58;14.90;99.90
28532;DHT22;15738;44.860;10.066;2022-09-27T05:30:44;14.80;99.90
28532;DHT22;15738;44.860;10.066;2022-09-27T05:33:36;14.80;99.90
28532;DHT22;15738;44.860;10.066;2022-09-27T05:36:40;14.80;99.90
28532;DHT22;15738;44.860;10.066;2022-09-27T05:39:27;14.80;99.90
28532;DHT22;15738;44.860;10.066;2022-09-27T05:42:13;15.20;99.90
28532;DHT22;15738;44.860;10.066;2022-09-27T05:45:00;15.80;99.90
28532;DHT22;15738;44.860;10.066;2022-09-27T05:47:54;16.30;99.90
28532;DHT22;15738;44.860;10.066;2022-09-27T05:50:41;16.90;99.90
28532;DHT22;15738;44.860;10.066;2022-09-27T05:53:27;17.50;99.90
28532;DHT22;15738;44.860;10.066;2022-09-27T05:56:13;18.10;99.90
28532;DHT22;15738;44.860;10.066;2022-09-27T05:59:18;18.50;99.90
28532;DHT22;15738;44.860;10.066;2022-09-27T06:02:23;19.10;99.90
28532;DHT22;15738;44.860;10.066;2022-09-27T06:05:30;19.60;99.90
28532;DHT22;15738;44.860;10.066;2022-09-27T06:08:52;20.00;99.90
28532;DHT22;15738;44.860;10.066;2022-09-27T06:11:40;20.50;99.90
28532;DHT22;15738;44.860;10.066;2022-09-27T06:14:30;20.90;99.90
28532;DHT22;15738;44.860;10.066;2022-09-27T06:17:22;21.30;99.90
28532;DHT22;15738;44.860;10.066;2022-09-27T06:20:08;21.70;99.90
28532;DHT22;15738;44.860;10.066;2022-09-27T06:23:11;22.00;99.90
28532;DHT22;15738;44.860;10.066;2022-09-27T06:26:06;22.30;99.90
28532;DHT22;15738;44.860;10.066;2022-09-27T06:29:08;22.30;99.90
28532;DHT22;15738;44.860;10.066;2022-09-27T06:31:57;21.70;99.90
28532;DHT22;15738;44.860;10.066;2022-09-27T06:35:06;21.50;99.90
28532;DHT22;15738;44.860;10.066;2022-09-27T06:37:52;21.20;99.90
28532;DHT22;15738;44.860;10.066;2022-09-27T06:40:39;21.10;99.90
28532;DHT22;15738;44.860;10.066;2022-09-27T06:43:35;21.00;99.90
28532;DHT22;15738;44.860;10.066;2022-09-27T06:46:53;20.90;99.90
28532;DHT22;15738;44.860;10.066;2022-09-27T06:50:03;20.80;99.90
28532;DHT22;15738;44.860;10.066;2022-09-27T06:52:51;20.70;99.90
28532;DHT22;15738;44.860;10.066;2022-09-27T06:55:38;20.60;99.90
28532;DHT22;15738;44.860;10.066;2022-09-27T06:58:24;20.60;99.90
28532;DHT22;15738;44.860;10.066;2022-09-27T07:01:56;20.60;99.90
28532;DHT22;15738;44.860;10.066;2022-09-27T07:05:08;20.70;99.90
28532;DHT22;15738;44.860;10.066;2022-09-27T07:08:14;20.80;99.90
28532;DHT22;15738;44.860;10.066;2022-09-27T07:11:04;20.80;99.90
28532;DHT22;15738;44.860;10.066;2022-09-27T07:13:50;20.80;99.90
28532;DHT22;15738;44.860;10.066;2022-09-27T07:16:36;20.80;99.90
28532;DHT22;15738;44.860;10.066;2022-09-27T07:19:23;20.80;99.90
28532;DHT22;15738;44.860;10.066;2022-09-27T07:22:09;21.00;99.90
28532;DHT22;15738;44.860;10.066;2022-09-27T07:24:56;21.00;99.90
28532;DHT22;15738;44.860;10.066;2022-09-27T07:27:43;21.00;99.90
28532;DHT22;15738;44.860;10.066;2022-09-27T07:30:30;21.00;99.90
28532;DHT22;15738;44.860;10.066;2022-09-27T07:33:18;20.90;99.90
28532;DHT22;15738;44.860;10.066;2022-09-27T07:36:08;20.90;99.90
28532;DHT22;15738;44.860;10.066;2022-09-27T07:38:58;21.10;99.90
28532;DHT22;15738;44.860;10.066;2022-09-27T07:41:45;21.30;99.90
28532;DHT22;15738;44.860;10.066;2022-09-27T07:44:31;21.30;99.90
28532;DHT22;15738;44.860;10.066;2022-09-27T07:47:38;21.40;99.90
28532;DHT22;15738;44.860;10.066;2022-09-27T07:50:39;21.30;99.90
28532;DHT22;15738;44.860;10.066;2022-09-27T07:53:56;21.30;99.90
28532;DHT22;15738;44.860;10.066;2022-09-27T07:56:57;21.30;99.90
28532;DHT22;15738;44.860;10.066;2022-09-27T07:59:43;21.60;99.90
28532;DHT22;15738;44.860;10.066;2022-09-27T08:02:32;21.60;99.90
28532;DHT22;15738;44.860;10.066;2022-09-27T08:05:19;21.50;99.90
28532;DHT22;15738;44.860;10.066;2022-09-27T08:08:06;21.60;99.90
28532;DHT22;15738;44.860;10.066;2022-09-27T08:10:51;21.30;99.90
28532;DHT22;15738;44.860;10.066;2022-09-27T08:13:38;21.10;99.90
28532;DHT22;15738;44.860;10.066;2022-09-27T08:16:24;21.30;99.90
28532;DHT22;15738;44.860;10.066;2022-09-27T08:19:28;21.40;99.90
28532;DHT22;15738;44.860;10.066;2022-09-27T08:22:17;21.70;99.90
28532;DHT22;15738;44.860;10.066;2022-09-27T08:25:15;21.70;99.90
28532;DHT22;15738;44.860;10.066;2022-09-27T08:28:19;21.60;99.90
28532;DHT22;15738;44.860;10.066;2022-09-27T08:31:15;21.80;99.90
28532;DHT22;15738;44.860;10.066;2022-09-27T08:34:01;22.00;99.90
28532;DHT22;15738;44.860;10.066;2022-09-27T08:36:46;22.00;99.90
28532;DHT22;15738;44.860;10.066;2022-09-27T08:39:32;21.90;99.90
28532;DHT22;15738;44.860;10.066;2022-09-27T08:42:30;21.80;99.90
28532;DHT22;15738;44.860;10.066;2022-09-27T08:45:28;21.90;99.90
28532;DHT22;15738;44.860;10.066;2022-09-27T08:48:16;21.90;99.90
28532;DHT22;15738;44.860;10.066;2022-09-27T08:51:04;22.10;99.90
28532;DHT22;15738;44.860;10.066;2022-09-27T08:54:01;21.90;99.90
28532;DHT22;15738;44.860;10.066;2022-09-27T08:56:48;22.00;99.90
28532;DHT22;15738;44.860;10.066;2022-09-27T09:02:52;22.10;99.90
28532;DHT22;15738;44.860;10.066;2022-09-27T09:05:38;22.10;99.90
28532;DHT22;15738;44.860;10.066;2022-09-27T09:08:58;22.20;99.90
28532;DHT22;15738;44.860;10.066;2022-09-27T09:34:04;22.00;99.90
28532;DHT22;15738;44.860;10.066;2022-09-27T09:37:13;22.00;99.90
28532;DHT22;15738;44.860;10.066;2022-09-27T09:40:18;22.00;99.90
28532;DHT22;15738;44.860;10.066;2022-09-27T09:43:19;22.00;99.90
28532;DHT22;15738;44.860;10.066;2022-09-27T09:46:14;22.00;99.90
28532;DHT22;15738;44.860;10.066;2022-09-27T09:52:10;22.00;99.90
28532;DHT22;15738;44.860;10.066;2022-09-27T09:55:05;22.00;99.90
28532;DHT22;15738;44.860;10.066;2022-09-27T10:01:22;22.20;99.90
28532;DHT22;15738;44.860;10.066;2022-09-27T10:04:25;22.30;99.90
28532;DHT22;15738;44.860;10.066;2022-09-27T10:07:19;22.30;99.90
28532;DHT22;15738;44.860;10.066;2022-09-27T10:10:07;22.40;99.90
28532;DHT22;15738;44.860;10.066;2022-09-27T10:13:04;22.40;99.90
28532;DHT22;15738;44.860;10.066;2022-09-27T10:16:15;22.50;99.90
28532;DHT22;15738;44.860;10.066;2022-09-27T10:19:04;22.40;99.90
28532;DHT22;15738;44.860;10.066;2022-09-27T10:21:51;22.40;99.90
28532;DHT22;15738;44.860;10.066;2022-09-27T10:24:58;22.40;99.90
28532;DHT22;15738;44.860;10.066;2022-09-27T10:28:02;22.40;99.90
28532;DHT22;15738;44.860;10.066;2022-09-27T10:30:55;22.50;99.90
28532;DHT22;15738;44.860;10.066;2022-09-27T10:33:57;22.60;99.90
28532;DHT22;15738;44.860;10.066;2022-09-27T10:39:51;22.90;99.90
28532;DHT22;15738;44.860;10.066;2022-09-27T10:42:38;22.90;99.90
28532;DHT22;15738;44.860;10.066;2022-09-27T10:45:33;23.00;99.90
28532;DHT22;15738;44.860;10.066;2022-09-27T10:48:28;22.90;99.90
28532;DHT22;15738;44.860;10.066;2022-09-27T10:51:36;22.90;99.90
28532;DHT22;15738;44.860;10.066;2022-09-27T10:54:25;23.00;99.90
28532;DHT22;15738;44.860;10.066;2022-09-27T10:57:18;23.00;99.90
28532;DHT22;15738;44.860;10.066;2022-09-27T11:00:29;23.00;99.90
28532;DHT22;15738;44.860;10.066;2022-09-27T11:03:15;23.00;99.90
28532;DHT22;15738;44.860;10.066;2022-09-27T11:06:30;23.00;99.90
28532;DHT22;15738;44.860;10.066;2022-09-27T11:09:23;22.90;99.90
28532;DHT22;15738;44.860;10.066;2022-09-27T11:12:13;23.00;99.90
28532;DHT22;15738;44.860;10.066;2022-09-27T11:15:04;23.00;99.90
28532;DHT22;15738;44.860;10.066;2022-09-27T11:30:15;23.10;99.90
28532;DHT22;15738;44.860;10.066;2022-09-27T11:33:32;23.20;99.90
28532;DHT22;15738;44.860;10.066;2022-09-27T11:43:33;23.40;99.90
28532;DHT22;15738;44.860;10.066;2022-09-27T11:46:34;23.40;99.90
28532;DHT22;15738;44.860;10.066;2022-09-27T12:05:22;23.80;99.90
28532;DHT22;15738;44.860;10.066;2022-09-27T12:12:02;23.70;99.90
28532;DHT22;15738;44.860;10.066;2022-09-27T12:14:53;23.80;99.90
28532;DHT22;15738;44.860;10.066;2022-09-27T12:17:44;23.80;99.90
28532;DHT22;15738;44.860;10.066;2022-09-27T12:20:35;23.80;99.90
28532;DHT22;15738;44.860;10.066;2022-09-27T12:23:35;23.90;99.90
28532;DHT22;15738;44.860;10.066;2022-09-27T12:26:43;23.90;99.90
28532;DHT22;15738;44.860;10.066;2022-09-27T12:29:37;23.90;99.90
28532;DHT22;15738;44.860;10.066;2022-09-27T12:35:23;24.00;99.90
28532;DHT22;15738;44.860;10.066;2022-09-27T12:38:16;23.90;99.90
28532;DHT22;15738;44.860;10.066;2022-09-27T12:41:10;23.80;99.90
28532;DHT22;15738;44.860;10.066;2022-09-27T12:44:11;23.90;99.90
28532;DHT22;15738;44.860;10.066;2022-09-27T12:50:26;23.90;99.90
28532;DHT22;15738;44.860;10.066;2022-09-27T13:15:04;24.20;99.90
28532;DHT22;15738;44.860;10.066;2022-09-27T13:17:54;24.20;99.90
28532;DHT22;15738;44.860;10.066;2022-09-27T13:21:05;24.20;99.90
28532;DHT22;15738;44.860;10.066;2022-09-27T13:24:02;24.00;99.90
28532;DHT22;15738;44.860;10.066;2022-09-27T13:26:56;23.90;99.90
28532;DHT22;15738;44.860;10.066;2022-09-27T13:29:46;24.00;99.90
28532;DHT22;15738;44.860;10.066;2022-09-27T13:32:32;23.90;99.90
28532;DHT22;15738;44.860;10.066;2022-09-27T13:35:29;23.70;99.90
28532;DHT22;15738;44.860;10.066;2022-09-27T13:38:22;23.60;99.90
28532;DHT22;15738;44.860;10.066;2022-09-27T13:41:17;23.40;99.90
28532;DHT22;15738;44.860;10.066;2022-09-27T13:44:20;23.30;99.90
28532;DHT22;15738;44.860;10.066;2022-09-27T13:47:19;23.20;99.90
28532;DHT22;15738;44.860;10.066;2022-09-27T13:50:25;23.10;99.90
28532;DHT22;15738;44.860;10.066;2022-09-27T13:53:29;23.10;99.90
28532;DHT22;15738;44.860;10.066;2022-09-27T14:02:54;23.30;99.90
28532;DHT22;15738;44.860;10.066;2022-09-27T14:05:48;23.30;99.90
28532;DHT22;15738;44.860;10.066;2022-09-27T14:08:45;23.40;99.90
28532;DHT22;15738;44.860;10.066;2022-09-27T14:11:36;23.50;99.90
28532;DHT22;15738;44.860;10.066;2022-09-27T14:14:26;23.60;99.90
28532;DHT22;15738;44.860;10.066;2022-09-27T14:17:15;23.70;99.90
28532;DHT22;15738;44.860;10.066;2022-09-27T14:20:03;23.80;99.20
28532;DHT22;15738;44.860;10.066;2022-09-27T14:22:53;23.90;99.90
28532;DHT22;15738;44.860;10.066;2022-09-27T14:25:49;24.00;99.60
28532;DHT22;15738;44.860;10.066;2022-09-27T14:28:40;24.10;98.80
28532;DHT22;15738;44.860;10.066;2022-09-27T14:32:08;24.10;99.70
28532;DHT22;15738;44.860;10.066;2022-09-27T14:38:34;24.20;99.90
28532;DHT22;15738;44.860;10.066;2022-09-27T14:41:59;24.10;99.90
28532;DHT22;15738;44.860;10.066;2022-09-27T14:44:47;23.90;99.90
28532;DHT22;15738;44.860;10.066;2022-09-27T14:47:34;23.80;99.90
28532;DHT22;15738;44.860;10.066;2022-09-27T14:50:23;23.70;99.90
28532;DHT22;15738;44.860;10.066;2022-09-27T14:53:24;23.70;99.90
28532;DHT22;15738;44.860;10.066;2022-09-27T14:56:14;23.60;99.90
28532;DHT22;15738;44.860;10.066;2022-09-27T15:01:53;23.50;99.90
28532;DHT22;15738;44.860;10.066;2022-09-27T15:04:43;23.40;99.90
28532;DHT22;15738;44.860;10.066;2022-09-27T15:07:41;23.40;99.90
28532;DHT22;15738;44.860;10.066;2022-09-27T15:10:29;23.40;99.90
28532;DHT22;15738;44.860;10.066;2022-09-27T15:13:17;23.40;99.90
28532;DHT22;15738;44.860;10.066;2022-09-27T15:16:15;23.30;99.90
28532;DHT22;15738;44.860;10.066;2022-09-27T15:19:23;23.20;99.90
28532;DHT22;15738;44.860;10.066;2022-09-27T15:22:40;23.10;99.90
28532;DHT22;15738;44.860;10.066;2022-09-27T15:28:20;23.00;99.90
28532;DHT22;15738;44.860;10.066;2022-09-27T15:31:05;23.00;99.90
28532;DHT22;15738;44.860;10.066;2022-09-27T15:33:54;23.00;99.90
28532;DHT22;15738;44.860;10.066;2022-09-27T15:36:54;22.90;99.90
28532;DHT22;15738;44.860;10.066;2022-09-27T15:39:41;22.90;99.90
28532;DHT22;15738;44.860;10.066;2022-09-27T15:42:27;22.80;99.90
28532;DHT22;15738;44.860;10.066;2022-09-27T15:45:29;22.80;99.90
28532;DHT22;15738;44.860;10.066;2022-09-27T15:48:17;22.60;99.90
28532;DHT22;15738;44.860;10.066;2022-09-27T15:51:39;22.60;99.90
28532;DHT22;15738;44.860;10.066;2022-09-27T15:54:30;22.50;99.90
28532;DHT22;15738;44.860;10.066;2022-09-27T15:57:17;22.40;99.90
28532;DHT22;15738;44.860;10.066;2022-09-27T16:00:04;22.40;99.90
28532;DHT22;15738;44.860;10.066;2022-09-27T16:02:56;22.30;99.90
28532;DHT22;15738;44.860;10.066;2022-09-27T16:05:42;22.20;99.90
28532;DHT22;15738;44.860;10.066;2022-09-27T16:08:28;22.20;99.90
28532;DHT22;15738;44.860;10.066;2022-09-27T16:11:15;22.10;99.90
28532;DHT22;15738;44.860;10.066;2022-09-27T16:14:01;22.10;99.90
28532;DHT22;15738;44.860;10.066;2022-09-27T16:16:52;22.00;99.90
28532;DHT22;15738;44.860;10.066;2022-09-27T16:19:38;22.00;99.90
28532;DHT22;15738;44.860;10.066;2022-09-27T16:22:24;21.90;99.90
28532;DHT22;15738;44.860;10.066;2022-09-27T16:25:10;21.80;99.90
28532;DHT22;15738;44.860;10.066;2022-09-27T16:28:00;21.70;99.90
28532;DHT22;15738;44.860;10.066;2022-09-27T16:30:46;21.70;99.90
28532;DHT22;15738;44.860;10.066;2022-09-27T16:33:33;21.70;99.90
28532;DHT22;15738;44.860;10.066;2022-09-27T16:36:20;21.60;99.90
28532;DHT22;15738;44.860;10.066;2022-09-27T16:39:08;21.60;99.90
28532;DHT22;15738;44.860;10.066;2022-09-27T16:41:55;21.50;99.90
28532;DHT22;15738;44.860;10.066;2022-09-27T16:44:40;21.50;99.90
28532;DHT22;15738;44.860;10.066;2022-09-27T16:47:30;21.50;99.90
28532;DHT22;15738;44.860;10.066;2022-09-27T16:50:16;21.40;99.90
28532;DHT22;15738;44.860;10.066;2022-09-27T16:53:20;21.40;99.90
28532;DHT22;15738;44.860;10.066;2022-09-27T16:56:06;21.40;99.90
28532;DHT22;15738;44.860;10.066;2022-09-27T16:58:51;21.30;99.90
28532;DHT22;15738;44.860;10.066;2022-09-27T17:01:37;21.20;99.90
28532;DHT22;15738;44.860;10.066;2022-09-27T17:04:25;21.20;99.90
28532;DHT22;15738;44.860;10.066;2022-09-27T17:07:11;21.10;99.90
28532;DHT22;15738;44.860;10.066;2022-09-27T17:09:57;21.00;99.90
28532;DHT22;15738;44.860;10.066;2022-09-27T17:12:44;21.00;99.90
28532;DHT22;15738;44.860;10.066;2022-09-27T17:15:37;20.90;99.90
28532;DHT22;15738;44.860;10.066;2022-09-27T17:18:23;20.80;99.90
28532;DHT22;15738;44.860;10.066;2022-09-27T17:21:08;20.80;99.90
28532;DHT22;15738;44.860;10.066;2022-09-27T17:23:57;20.70;99.90
28532;DHT22;15738;44.860;10.066;2022-09-27T17:26:43;20.70;99.90
28532;DHT22;15738;44.860;10.066;2022-09-27T17:29:29;20.70;99.90
28532;DHT22;15738;44.860;10.066;2022-09-27T17:32:15;20.60;99.90
28532;DHT22;15738;44.860;10.066;2022-09-27T17:35:01;20.50;99.90
28532;DHT22;15738;44.860;10.066;2022-09-27T17:37:47;20.50;99.90
28532;DHT22;15738;44.860;10.066;2022-09-27T17:40:34;20.40;99.90
28532;DHT22;15738;44.860;10.066;2022-09-27T17:43:20;20.40;99.90
28532;DHT22;15738;44.860;10.066;2022-09-27T17:46:07;20.40;99.90
28532;DHT22;15738;44.860;10.066;2022-09-27T17:48:55;20.30;99.90
28532;DHT22;15738;44.860;10.066;2022-09-27T17:51:59;20.30;99.90
28532;DHT22;15738;44.860;10.066;2022-09-27T17:54:45;20.20;99.90
28532;DHT22;15738;44.860;10.066;2022-09-27T17:57:31;20.20;99.90
28532;DHT22;15738;44.860;10.066;2022-09-27T18:00:17;20.10;99.90
28532;DHT22;15738;44.860;10.066;2022-09-27T18:03:04;20.10;99.90
28532;DHT22;15738;44.860;10.066;2022-09-27T18:05:50;20.10;99.90
28532;DHT22;15738;44.860;10.066;2022-09-27T18:08:36;20.00;99.90
28532;DHT22;15738;44.860;10.066;2022-09-27T18:11:24;20.00;99.90
28532;DHT22;15738;44.860;10.066;2022-09-27T18:14:12;20.00;99.90
28532;DHT22;15738;44.860;10.066;2022-09-27T18:16:58;19.90;99.90
28532;DHT22;15738;44.860;10.066;2022-09-27T18:19:44;19.90;99.90
28532;DHT22;15738;44.860;10.066;2022-09-27T18:22:29;19.80;99.90
28532;DHT22;15738;44.860;10.066;2022-09-27T18:25:15;19.80;99.90
28532;DHT22;15738;44.860;10.066;2022-09-27T18:28:01;19.70;99.90
28532;DHT22;15738;44.860;10.066;2022-09-27T18:30:47;19.70;99.90
28532;DHT22;15738;44.860;10.066;2022-09-27T18:33:33;19.70;99.90
28532;DHT22;15738;44.860;10.066;2022-09-27T18:36:21;19.60;99.90
28532;DHT22;15738;44.860;10.066;2022-09-27T18:39:15;19.60;99.90
28532;DHT22;15738;44.860;10.066;2022-09-27T18:42:04;19.60;99.90
28532;DHT22;15738;44.860;10.066;2022-09-27T18:44:50;19.50;99.90
28532;DHT22;15738;44.860;10.066;2022-09-27T18:47:36;19.50;99.90
28532;DHT22;15738;44.860;10.066;2022-09-27T18:50:21;19.50;99.90
28532;DHT22;15738;44.860;10.066;2022-09-27T18:53:07;19.50;99.90
28532;DHT22;15738;44.860;10.066;2022-09-27T18:55:53;19.40;99.90
28532;DHT22;15738;44.860;10.066;2022-09-27T18:58:39;19.40;99.90
28532;DHT22;15738;44.860;10.066;2022-09-27T19:01:26;19.40;99.90
28532;DHT22;15738;44.860;10.066;2022-09-27T19:04:15;19.30;99.90
28532;DHT22;15738;44.860;10.066;2022-09-27T19:07:06;19.30;99.90
28532;DHT22;15738;44.860;10.066;2022-09-27T19:09:52;19.30;99.90
28532;DHT22;15738;44.860;10.066;2022-09-27T19:12:37;19.20;99.90
28532;DHT22;15738;44.860;10.066;2022-09-27T19:15:24;19.20;99.90
28532;DHT22;15738;44.860;10.066;2022-09-27T19:18:10;19.20;99.90
28532;DHT22;15738;44.860;10.066;2022-09-27T19:23:55;19.10;99.90
28532;DHT22;15738;44.860;10.066;2022-09-27T19:26:41;19.10;99.90
28532;DHT22;15738;44.860;10.066;2022-09-27T19:29:27;19.10;99.90
28532;DHT22;15738;44.860;10.066;2022-09-27T19:32:12;19.00;99.90
28532;DHT22;15738;44.860;10.066;2022-09-27T19:34:58;19.00;99.90
28532;DHT22;15738;44.860;10.066;2022-09-27T19:37:43;18.90;99.90
28532;DHT22;15738;44.860;10.066;2022-09-27T19:40:30;19.00;99.90
28532;DHT22;15738;44.860;10.066;2022-09-27T19:43:16;18.90;99.90
28532;DHT22;15738;44.860;10.066;2022-09-27T19:46:06;18.90;99.90
28532;DHT22;15738;44.860;10.066;2022-09-27T19:48:53;19.00;99.90
28532;DHT22;15738;44.860;10.066;2022-09-27T19:51:39;19.00;99.90
28532;DHT22;15738;44.860;10.066;2022-09-27T19:54:25;19.00;99.90
28532;DHT22;15738;44.860;10.066;2022-09-27T19:57:10;19.00;99.90
28532;DHT22;15738;44.860;10.066;2022-09-27T19:59:58;18.90;99.90
28532;DHT22;15738;44.860;10.066;2022-09-27T20:02:43;18.90;99.90
28532;DHT22;15738;44.860;10.066;2022-09-27T20:05:29;18.90;99.90
28532;DHT22;15738;44.860;10.066;2022-09-27T20:08:14;18.90;99.90
28532;DHT22;15738;44.860;10.066;2022-09-27T20:11:03;18.90;99.90
28532;DHT22;15738;44.860;10.066;2022-09-27T20:13:51;18.80;99.90
28532;DHT22;15738;44.860;10.066;2022-09-27T20:16:37;18.80;99.90
28532;DHT22;15738;44.860;10.066;2022-09-27T20:19:26;18.80;99.90
28532;DHT22;15738;44.860;10.066;2022-09-27T20:22:12;18.70;99.90
28532;DHT22;15738;44.860;10.066;2022-09-27T20:24:58;18.70;99.90
28532;DHT22;15738;44.860;10.066;2022-09-27T20:27:43;18.70;99.90
28532;DHT22;15738;44.860;10.066;2022-09-27T20:30:30;18.70;99.90
28532;DHT22;15738;44.860;10.066;2022-09-27T20:33:16;18.70;99.90